Time;durP1;ratioP1;P1;durP2;ratioP2;P2;SDS_P1;SDS_P2;PMS_P1;PMS_P2;Temp;Humidity;BMP_temperature;BMP_pressure;BME280_temperature;BME280_humidity;BME280_pressure;Samples;Min_cycle;Max_cycle;Signal;HPM_P1;HPM_P2
2021/12/27 00:01:59;;;;;;;49.25;28.75;;;7.90;99.90;;;;;;4159917;28;20088;-55
2021/12/27 00:04:02;;;;;;;73.57;31.88;;;7.90;99.90;;;;;;4162075;28;20041;-54
2021/12/27 00:06:09;;;;;;;109.25;33.38;;;7.90;99.90;;;;;;4160568;28;20072;-54
2021/12/27 00:08:11;;;;;;;182.18;34.85;;;7.90;99.90;;;;;;4110337;28;1256767;-55
2021/12/27 00:10:13;;;;;;;30.92;24.17;;;7.90;99.90;;;;;;4158025;28;20061;-55
2021/12/27 00:12:15;;;;;;;46.75;27.42;;;7.90;99.90;;;;;;4150806;28;20145;-54
2021/12/27 00:14:18;;;;;;;33.40;25.38;;;7.90;99.90;;;;;;4158116;28;20045;-55
2021/12/27 00:16:20;;;;;;;;;;;7.90;99.90;;;;;;4164235;28;20152;-55
2021/12/27 00:18:22;;;;;;;26.23;22.80;;;8.00;99.90;;;;;;4159713;28;19929;-55
2021/12/27 00:20:25;;;;;;;24.42;21.35;;;7.90;99.90;;;;;;4166571;28;20065;-54
2021/12/27 00:22:27;;;;;;;22.73;20.52;;;7.90;99.90;;;;;;4162680;28;20076;-55
2021/12/27 00:24:29;;;;;;;19.88;18.05;;;7.90;99.90;;;;;;4151849;28;20069;-54
2021/12/27 00:26:31;;;;;;;16.38;14.93;;;7.90;99.90;;;;;;4161457;28;20091;-55
2021/12/27 00:28:33;;;;;;;15.02;14.00;;;7.90;99.90;;;;;;4163784;28;20056;-55
2021/12/27 00:30:38;;;;;;;18.02;16.27;;;7.90;99.90;;;;;;4158841;28;20477;-55
2021/12/27 00:32:43;;;;;;;22.20;18.13;;;7.90;99.90;;;;;;4162609;28;20139;-56
2021/12/27 00:34:45;;;;;;;22.92;18.80;;;7.90;99.90;;;;;;4161014;28;20064;-55
2021/12/27 00:36:47;;;;;;;24.92;20.95;;;7.90;99.90;;;;;;4162607;28;20041;-54
2021/12/27 00:38:49;;;;;;;24.67;21.40;;;7.80;99.90;;;;;;4161487;28;20071;-55
2021/12/27 00:40:51;;;;;;;22.45;19.35;;;7.80;99.90;;;;;;4163392;28;20038;-54
2021/12/27 00:42:54;;;;;;;28.63;22.30;;;7.80;99.90;;;;;;4159800;28;20041;-55
2021/12/27 00:44:56;;;;;;;32.45;24.05;;;7.80;99.90;;;;;;4147450;28;20117;-54
2021/12/27 00:46:59;;;;;;;23.65;21.13;;;7.80;99.90;;;;;;4160552;28;20051;-55
2021/12/27 00:49:02;;;;;;;28.83;23.23;;;7.80;99.90;;;;;;4151652;28;20117;-54
2021/12/27 00:51:05;;;;;;;24.50;21.95;;;7.80;99.90;;;;;;4160129;28;20034;-54
2021/12/27 00:53:07;;;;;;;23.58;19.75;;;7.90;99.90;;;;;;4179386;28;20055;-54
2021/12/27 00:55:11;;;;;;;20.90;18.83;;;7.90;99.90;;;;;;4160554;28;20038;-55
2021/12/27 00:57:13;;;;;;;20.58;18.70;;;7.90;99.90;;;;;;4163195;28;20069;-55
2021/12/27 00:59:15;;;;;;;20.17;17.95;;;7.90;99.90;;;;;;4162372;28;20052;-55
2021/12/27 01:01:17;;;;;;;20.45;18.52;;;7.90;99.90;;;;;;4150598;28;20401;-55
2021/12/27 01:03:20;;;;;;;84.00;23.63;;;7.90;99.90;;;;;;4161034;28;20044;-55
2021/12/27 01:05:24;;;;;;;101.30;24.77;;;7.90;99.90;;;;;;4162722;28;20088;-55
2021/12/27 01:07:26;;;;;;;33.45;20.55;;;7.90;99.90;;;;;;4163333;28;20468;-54
2021/12/27 01:13:45;;;;;;;155.80;25.10;;;7.90;99.90;;;;;;4161194;28;20108;-56
2021/12/27 01:15:52;;;;;;;82.28;20.08;;;7.90;99.90;;;;;;4162998;28;20060;-55
2021/12/27 01:17:54;;;;;;;46.22;20.35;;;7.90;99.90;;;;;;4161269;28;20091;-55
2021/12/27 01:19:56;;;;;;;26.45;20.33;;;7.90;99.90;;;;;;4161872;28;20038;-55
2021/12/27 01:21:58;;;;;;;20.13;18.15;;;7.90;99.90;;;;;;4159605;28;20045;-56
2021/12/27 01:24:02;;;;;;;20.05;18.33;;;7.90;99.90;;;;;;4163098;28;20387;-55
2021/12/27 01:26:04;;;;;;;21.60;19.33;;;7.90;99.90;;;;;;4160826;28;20057;-54
2021/12/27 01:28:06;;;;;;;19.77;17.85;;;7.90;99.90;;;;;;4161179;28;20487;-55
2021/12/27 01:30:10;;;;;;;;;;;7.80;99.90;;;;;;4161912;28;20064;-55
2021/12/27 01:32:12;;;;;;;19.80;17.67;;;7.90;99.90;;;;;;4162070;28;20411;-53
2021/12/27 01:34:14;;;;;;;18.02;16.23;;;7.90;99.90;;;;;;4160233;28;20033;-56
2021/12/27 01:36:17;;;;;;;17.23;15.43;;;7.90;99.90;;;;;;4161277;28;20061;-55
2021/12/27 01:38:19;;;;;;;16.77;15.40;;;7.90;99.90;;;;;;4160342;28;20133;-55
2021/12/27 01:40:25;;;;;;;47.65;20.77;;;7.90;99.90;;;;;;4162892;28;20036;-56
2021/12/27 01:42:27;;;;;;;154.43;25.15;;;7.90;99.90;;;;;;4159908;28;20116;-55
2021/12/27 01:44:29;;;;;;;46.63;19.83;;;7.90;99.90;;;;;;4162556;28;20052;-55
2021/12/27 01:46:32;;;;;;;133.88;26.77;;;7.90;99.90;;;;;;4159960;28;20036;-55
2021/12/27 01:48:39;;;;;;;197.30;27.17;;;7.90;99.90;;;;;;4162130;28;20059;-55
2021/12/27 01:50:43;;;;;;;284.42;32.13;;;7.90;99.90;;;;;;4159615;28;20042;-55
2021/12/27 01:52:45;;;;;;;316.35;31.40;;;7.90;99.90;;;;;;4163274;28;20497;-55
2021/12/27 01:54:50;;;;;;;270.40;30.38;;;7.90;99.90;;;;;;4161800;28;20524;-55
2021/12/27 01:56:53;;;;;;;334.50;35.20;;;7.80;99.90;;;;;;4162082;28;20132;-55
2021/12/27 01:58:57;;;;;;;212.73;24.73;;;7.80;99.90;;;;;;4154893;28;20120;-55
2021/12/27 02:01:01;;;;;;;243.00;27.90;;;7.80;99.90;;;;;;4150475;28;20052;-57
2021/12/27 02:03:04;;;;;;;261.45;27.73;;;7.80;99.90;;;;;;4155666;28;20041;-55
2021/12/27 02:05:06;;;;;;;211.43;25.27;;;7.80;99.90;;;;;;4149009;28;20045;-56
2021/12/27 02:07:09;;;;;;;205.52;22.63;;;7.80;99.90;;;;;;4154594;28;20069;-56
2021/12/27 02:09:11;;;;;;;64.53;17.58;;;7.80;99.90;;;;;;4163398;28;20551;-56
2021/12/27 02:11:17;;;;;;;49.20;16.73;;;7.80;99.90;;;;;;4158697;28;20038;-56
2021/12/27 02:13:20;;;;;;;16.63;15.25;;;7.80;99.90;;;;;;4161432;28;20042;-57
2021/12/27 02:15:22;;;;;;;38.45;17.95;;;7.80;99.90;;;;;;4157390;28;20068;-56
2021/12/27 02:17:25;;;;;;;17.08;15.77;;;7.80;99.90;;;;;;4161033;28;20548;-55
2021/12/27 02:19:27;;;;;;;20.33;14.82;;;7.80;99.90;;;;;;4160577;28;20071;-57
2021/12/27 02:21:29;;;;;;;27.45;15.02;;;7.80;99.90;;;;;;4162425;28;20149;-56
2021/12/27 02:23:32;;;;;;;29.92;15.85;;;7.90;99.90;;;;;;4160074;28;20069;-57
2021/12/27 02:25:34;;;;;;;59.67;18.40;;;7.90;99.90;;;;;;4162127;28;20052;-57
2021/12/27 02:27:38;;;;;;;15.80;14.30;;;7.80;99.90;;;;;;4159882;28;20125;-55
2021/12/27 02:29:40;;;;;;;15.90;14.52;;;7.80;99.90;;;;;;4161251;28;20044;-57
2021/12/27 02:31:44;;;;;;;16.05;13.98;;;7.80;99.90;;;;;;4159160;28;20076;-56
2021/12/27 02:33:46;;;;;;;16.10;14.88;;;7.80;99.90;;;;;;4162501;28;20081;-56
2021/12/27 02:35:52;;;;;;;15.25;14.10;;;7.80;99.90;;;;;;4157911;28;20140;-55
2021/12/27 02:37:56;;;;;;;58.30;20.08;;;7.90;99.90;;;;;;4151297;28;20409;-57
2021/12/27 02:39:58;;;;;;;15.60;14.20;;;7.80;99.90;;;;;;4159307;28;20068;-57
2021/12/27 02:42:00;;;;;;;19.48;15.63;;;7.80;99.90;;;;;;4148571;28;20069;-56
2021/12/27 02:44:03;;;;;;;17.67;16.05;;;7.80;99.90;;;;;;4159357;28;20076;-55
2021/12/27 02:46:11;;;;;;;19.75;17.73;;;7.90;99.90;;;;;;4161683;28;20508;-56
2021/12/27 02:48:15;;;;;;;18.88;16.65;;;7.80;99.90;;;;;;4160107;28;20076;-56
2021/12/27 02:50:17;;;;;;;19.17;16.05;;;7.80;99.90;;;;;;4161466;28;20113;-57
2021/12/27 02:52:19;;;;;;;;;;;7.80;99.90;;;;;;4160980;28;20133;-56
2021/12/27 02:54:21;;;;;;;22.00;19.77;;;7.70;99.90;;;;;;4159755;28;19932;-56
2021/12/27 02:56:23;;;;;;;156.15;28.73;;;7.70;99.90;;;;;;4161067;28;20041;-56
2021/12/27 02:58:26;;;;;;;151.73;30.48;;;7.70;99.90;;;;;;4161032;28;20045;-56
2021/12/27 03:00:36;;;;;;;81.00;23.70;;;7.80;99.90;;;;;;4160760;28;20044;-56
2021/12/27 03:02:38;;;;;;;18.92;17.15;;;7.80;99.90;;;;;;4161621;28;20048;-56
2021/12/27 03:04:40;;;;;;;19.45;17.77;;;7.80;99.90;;;;;;4165319;28;20049;-56
2021/12/27 03:06:42;;;;;;;17.67;16.17;;;7.80;99.90;;;;;;4163486;28;20706;-56
2021/12/27 03:08:46;;;;;;;18.75;17.05;;;7.80;99.90;;;;;;4162764;28;20573;-56
2021/12/27 03:10:51;;;;;;;20.42;18.45;;;7.80;99.90;;;;;;4161997;28;20038;-56
2021/12/27 03:12:53;;;;;;;33.63;21.13;;;7.80;99.90;;;;;;4165413;28;20068;-55
2021/12/27 03:14:55;;;;;;;30.58;20.77;;;7.80;99.90;;;;;;4162051;28;20487;-56
2021/12/27 03:16:58;;;;;;;28.25;22.25;;;7.80;99.90;;;;;;4165256;28;20083;-56
2021/12/27 03:19:00;;;;;;;24.38;21.88;;;7.80;99.90;;;;;;4161434;28;20350;-56
2021/12/27 03:21:03;;;;;;;;;;;7.80;99.90;;;;;;4170775;28;20045;-56
2021/12/27 03:23:05;;;;;;;21.17;18.85;;;7.80;99.90;;;;;;4172502;28;19922;-56
2021/12/27 03:25:09;;;;;;;22.77;20.25;;;7.80;99.90;;;;;;4164764;28;20068;-56
2021/12/27 03:27:11;;;;;;;21.77;19.65;;;7.80;99.90;;;;;;4161762;28;20065;-55
2021/12/27 03:29:13;;;;;;;21.65;19.38;;;7.80;99.90;;;;;;4165295;28;20120;-57
2021/12/27 03:31:16;;;;;;;19.38;17.42;;;7.80;99.90;;;;;;4161404;28;20038;-57
2021/12/27 03:33:20;;;;;;;;;;;7.80;99.90;;;;;;4165567;28;20065;-57
2021/12/27 03:35:28;;;;;;;18.45;16.58;;;7.80;99.90;;;;;;4160642;28;20036;-57
2021/12/27 03:37:30;;;;;;;20.95;17.77;;;7.80;99.90;;;;;;4164917;28;20129;-57
2021/12/27 03:39:32;;;;;;;17.00;15.32;;;7.80;99.90;;;;;;4160195;28;20049;-57
2021/12/27 03:41:35;;;;;;;14.27;12.98;;;7.80;99.90;;;;;;4162683;28;20124;-57
2021/12/27 03:43:37;;;;;;;11.98;11.07;;;7.70;99.90;;;;;;4159913;28;20076;-57
2021/12/27 03:45:40;;;;;;;11.73;11.02;;;7.70;99.90;;;;;;4163569;28;20069;-56
2021/12/27 03:47:42;;;;;;;10.27;9.88;;;7.70;99.90;;;;;;4159780;28;20076;-56
2021/12/27 03:49:44;;;;;;;11.60;10.57;;;7.70;99.90;;;;;;4165054;28;20034;-56
2021/12/27 03:51:46;;;;;;;10.32;9.73;;;7.70;99.90;;;;;;4161253;28;20041;-56
2021/12/27 03:53:48;;;;;;;10.20;9.70;;;7.80;99.90;;;;;;4164851;28;20041;-57
2021/12/27 03:55:51;;;;;;;10.45;9.95;;;7.80;99.90;;;;;;4161752;28;20406;-56
2021/12/27 03:57:56;;;;;;;13.02;12.02;;;7.70;99.90;;;;;;4165247;28;20084;-56
2021/12/27 04:00:46;;;;;;;14.43;13.30;;;7.80;99.90;;;;;;4160964;28;20045;-56
2021/12/27 04:02:28;;;;;;;12.23;11.30;;;7.80;99.90;;;;;;4156151;28;20085;-56
2021/12/27 04:04:30;;;;;;;12.80;11.90;;;7.80;99.90;;;;;;4162625;28;20076;-56
2021/12/27 04:06:32;;;;;;;12.77;11.98;;;7.80;99.90;;;;;;4163984;28;20442;-56
2021/12/27 04:08:34;;;;;;;12.35;11.55;;;7.80;99.90;;;;;;4162759;28;20053;-56
2021/12/27 04:10:39;;;;;;;13.65;12.70;;;7.80;99.90;;;;;;4163037;28;20148;-55
2021/12/27 04:12:42;;;;;;;13.63;12.68;;;7.80;99.90;;;;;;4161944;28;20642;-56
2021/12/27 04:14:44;;;;;;;16.63;14.10;;;7.80;99.90;;;;;;4164201;28;20034;-55
2021/12/27 04:16:46;;;;;;;16.33;15.15;;;7.80;99.90;;;;;;4161322;28;20049;-55
2021/12/27 04:18:48;;;;;;;12.75;12.02;;;7.80;99.90;;;;;;4162625;28;20041;-56
2021/12/27 04:20:50;;;;;;;13.07;12.07;;;7.80;99.90;;;;;;4161490;28;20037;-56
2021/12/27 04:22:53;;;;;;;13.43;12.45;;;7.80;99.90;;;;;;4146005;28;20533;-55
2021/12/27 04:24:55;;;;;;;12.90;11.77;;;7.80;99.90;;;;;;4161976;28;20076;-56
2021/12/27 04:26:57;;;;;;;12.55;11.60;;;7.70;99.90;;;;;;4163296;28;20076;-56
2021/12/27 04:28:59;;;;;;;12.05;11.15;;;7.70;99.90;;;;;;4161850;28;20620;-55
2021/12/27 04:31:01;;;;;;;11.95;11.07;;;7.80;99.90;;;;;;4163527;28;20072;-56
2021/12/27 04:33:04;;;;;;;10.88;10.10;;;7.80;99.90;;;;;;4162548;28;20072;-56
2021/12/27 04:35:06;;;;;;;11.02;10.23;;;7.80;99.90;;;;;;4163750;28;20512;-56
2021/12/27 04:37:08;;;;;;;12.52;11.68;;;7.80;99.90;;;;;;4160700;28;20478;-56
2021/12/27 04:39:11;;;;;;;10.43;9.93;;;7.80;99.90;;;;;;4163024;28;20041;-57
2021/12/27 04:41:16;;;;;;;11.00;10.40;;;7.80;99.90;;;;;;4162764;28;20120;-56
2021/12/27 04:43:21;;;;;;;12.30;11.30;;;7.80;99.90;;;;;;4161949;28;20044;-54
2021/12/27 04:45:23;;;;;;;11.93;11.23;;;7.80;99.90;;;;;;4163725;28;20136;-56
2021/12/27 04:47:25;;;;;;;15.02;11.60;;;7.80;99.90;;;;;;4161501;28;20083;-56
2021/12/27 04:49:28;;;;;;;12.77;12.00;;;7.80;99.90;;;;;;4162595;28;20034;-56
2021/12/27 04:51:30;;;;;;;13.73;12.82;;;7.80;99.90;;;;;;4160841;28;20453;-56
2021/12/27 04:53:32;;;;;;;18.23;15.48;;;7.80;99.90;;;;;;4163802;28;20077;-56
2021/12/27 04:55:35;;;;;;;17.50;15.68;;;7.80;99.90;;;;;;4161777;28;20072;-57
2021/12/27 04:57:37;;;;;;;14.95;13.75;;;7.80;99.90;;;;;;4162510;28;20129;-56
2021/12/27 04:59:39;;;;;;;;;;;7.70;99.90;;;;;;4162200;28;20472;-56
2021/12/27 05:01:41;;;;;;;13.60;12.60;;;7.80;99.90;;;;;;4162468;28;20028;-57
2021/12/27 05:03:43;;;;;;;15.70;14.35;;;7.80;99.90;;;;;;4160724;28;20042;-56
2021/12/27 05:05:47;;;;;;;14.02;12.98;;;7.80;99.90;;;;;;4162514;28;20519;-56
2021/12/27 05:07:49;;;;;;;15.88;14.60;;;7.90;99.90;;;;;;4160022;28;20034;-56
2021/12/27 05:09:51;;;;;;;14.75;13.43;;;7.80;99.90;;;;;;4163513;28;20034;-57
2021/12/27 05:11:53;;;;;;;14.68;13.38;;;7.80;99.90;;;;;;4161199;28;20041;-57
2021/12/27 05:13:55;;;;;;;15.45;13.48;;;7.80;99.90;;;;;;4161868;28;20048;-56
2021/12/27 05:15:57;;;;;;;14.02;12.05;;;7.80;99.90;;;;;;4159286;28;20076;-56
2021/12/27 05:18:00;;;;;;;13.88;12.60;;;7.80;99.90;;;;;;4161267;28;20033;-55
2021/12/27 05:20:08;;;;;;;12.68;11.55;;;7.80;99.90;;;;;;4160075;28;20092;-56
2021/12/27 05:22:10;;;;;;;16.55;14.45;;;7.80;99.90;;;;;;4161293;28;20062;-56
2021/12/27 05:24:13;;;;;;;25.17;15.32;;;7.80;99.90;;;;;;4160190;28;20434;-56
2021/12/27 05:26:15;;;;;;;60.95;17.52;;;7.80;99.90;;;;;;4158523;28;20072;-57
2021/12/27 05:28:18;;;;;;;181.68;24.58;;;7.80;99.90;;;;;;4159850;28;20040;-56
2021/12/27 05:30:20;;;;;;;38.15;16.23;;;7.80;99.90;;;;;;4164098;28;20104;-56
2021/12/27 05:32:22;;;;;;;55.17;17.80;;;7.80;99.90;;;;;;4160756;28;20041;-55
2021/12/27 05:34:24;;;;;;;26.63;18.10;;;7.80;99.90;;;;;;4162404;28;20091;-56
2021/12/27 05:36:26;;;;;;;40.25;17.42;;;7.80;99.90;;;;;;4159574;28;20589;-56
2021/12/27 05:38:29;;;;;;;25.30;16.20;;;7.90;99.90;;;;;;4162221;28;20041;-56
2021/12/27 05:40:31;;;;;;;;;;;7.80;99.90;;;;;;4161694;28;20045;-56
2021/12/27 05:42:35;;;;;;;29.08;15.02;;;7.80;99.90;;;;;;4153820;28;20004;-56
2021/12/27 05:44:37;;;;;;;47.38;18.48;;;7.90;99.90;;;;;;4153118;28;20129;-57
2021/12/27 05:46:39;;;;;;;56.78;17.45;;;7.90;99.90;;;;;;4162694;28;20076;-55
2021/12/27 05:48:41;;;;;;;59.10;20.27;;;7.90;99.90;;;;;;4160778;28;20043;-56
2021/12/27 05:50:44;;;;;;;41.42;19.85;;;7.80;99.90;;;;;;4159717;28;20038;-56
2021/12/27 05:52:46;;;;;;;29.73;16.15;;;7.90;99.90;;;;;;4156284;28;20577;-56
2021/12/27 05:54:48;;;;;;;57.05;18.30;;;7.90;99.90;;;;;;4161309;28;20045;-56
2021/12/27 05:56:50;;;;;;;87.70;19.67;;;7.90;99.90;;;;;;4159277;28;20069;-57
2021/12/27 05:58:52;;;;;;;35.10;17.83;;;7.90;99.90;;;;;;4163577;28;20050;-57
2021/12/27 06:00:55;;;;;;;20.10;16.85;;;7.90;99.90;;;;;;4161799;28;20037;-57
2021/12/27 06:02:57;;;;;;;38.97;16.38;;;7.90;99.90;;;;;;4162867;28;20041;-57
2021/12/27 06:05:00;;;;;;;86.97;20.50;;;7.90;99.90;;;;;;4159364;28;20092;-57
2021/12/27 06:07:02;;;;;;;62.65;20.05;;;7.90;99.90;;;;;;4163222;28;20076;-57
2021/12/27 06:09:06;;;;;;;102.15;20.70;;;7.80;99.90;;;;;;4160039;28;20060;-56
2021/12/27 06:11:08;;;;;;;33.97;17.17;;;7.90;99.90;;;;;;4162416;28;20041;-57
2021/12/27 06:13:10;;;;;;;41.58;17.17;;;7.80;99.90;;;;;;4161286;28;20080;-57
2021/12/27 06:15:13;;;;;;;35.20;16.70;;;7.80;99.90;;;;;;4160243;28;20089;-57
2021/12/27 06:17:15;;;;;;;23.30;15.15;;;7.80;99.90;;;;;;4158108;28;20080;-54
2021/12/27 06:19:17;;;;;;;33.15;17.83;;;7.90;99.90;;;;;;4160375;28;20060;-54
2021/12/27 06:21:19;;;;;;;42.00;16.45;;;7.90;99.90;;;;;;4159356;28;20421;-55
2021/12/27 06:23:21;;;;;;;34.42;16.67;;;7.90;99.90;;;;;;4161652;28;20064;-55
2021/12/27 06:25:24;;;;;;;24.70;15.30;;;7.80;99.90;;;;;;4159867;28;20076;-54
2021/12/27 06:27:26;;;;;;;23.30;15.50;;;7.80;99.90;;;;;;4162133;28;20719;-54
2021/12/27 06:29:28;;;;;;;23.02;16.13;;;7.90;99.90;;;;;;4161537;28;20037;-54
2021/12/27 06:31:30;;;;;;;15.50;13.85;;;7.90;99.90;;;;;;4162102;28;20052;-54
2021/12/27 06:33:32;;;;;;;18.75;13.30;;;7.90;99.90;;;;;;4158865;28;20593;-54
2021/12/27 06:35:35;;;;;;;20.98;15.48;;;7.90;99.90;;;;;;4164371;28;20540;-53
2021/12/27 06:37:38;;;;;;;16.40;13.63;;;7.90;99.90;;;;;;4163188;28;20112;-53
2021/12/27 06:39:41;;;;;;;19.00;13.13;;;7.90;99.90;;;;;;4166220;28;20145;-54
2021/12/27 06:41:43;;;;;;;17.52;12.32;;;7.90;99.90;;;;;;4159620;28;20798;-53
2021/12/27 06:43:45;;;;;;;15.88;12.45;;;7.90;99.90;;;;;;4179912;28;20107;-54
2021/12/27 06:45:47;;;;;;;13.90;12.23;;;7.90;99.90;;;;;;4162761;28;20038;-54
2021/12/27 06:47:49;;;;;;;18.38;14.02;;;7.90;99.90;;;;;;4166121;28;20176;-54
2021/12/27 06:49:52;;;;;;;16.23;12.40;;;7.90;99.90;;;;;;4161915;28;20065;-53
2021/12/27 06:51:55;;;;;;;16.73;11.57;;;7.90;99.90;;;;;;4165186;28;20038;-53
2021/12/27 06:53:57;;;;;;;14.60;13.30;;;7.90;99.90;;;;;;4163497;28;20117;-54
2021/12/27 06:55:59;;;;;;;13.68;12.23;;;7.90;99.90;;;;;;4148941;28;20379;-54
2021/12/27 06:58:01;;;;;;;10.70;9.80;;;7.90;99.90;;;;;;4158738;28;20068;-52
2021/12/27 07:00:06;;;;;;;12.18;11.13;;;7.90;99.90;;;;;;4180325;28;20068;-54
2021/12/27 07:02:08;;;;;;;15.77;12.98;;;7.90;99.90;;;;;;4161679;28;20101;-54
2021/12/27 07:04:11;;;;;;;10.07;9.32;;;7.80;99.90;;;;;;4164605;28;20041;-54
2021/12/27 07:06:13;;;;;;;11.95;10.60;;;7.90;99.90;;;;;;4161690;28;20045;-54
2021/12/27 07:08:16;;;;;;;14.68;13.27;;;7.90;99.90;;;;;;4163296;28;20064;-52
2021/12/27 07:10:19;;;;;;;24.23;15.88;;;7.80;99.90;;;;;;4161692;28;20076;-53
2021/12/27 07:12:21;;;;;;;15.93;13.63;;;7.80;99.90;;;;;;4149709;28;20045;-53
2021/12/27 07:14:23;;;;;;;10.85;10.15;;;7.90;99.90;;;;;;4164663;28;20124;-54
2021/12/27 07:16:26;;;;;;;10.40;9.68;;;7.80;99.90;;;;;;4164489;28;20495;-54
2021/12/27 07:18:29;;;;;;;11.18;10.50;;;7.90;99.90;;;;;;4163329;28;20099;-54
2021/12/27 07:20:31;;;;;;;10.23;9.40;;;7.90;99.90;;;;;;4164054;28;20033;-53
2021/12/27 07:22:34;;;;;;;33.72;18.23;;;7.90;99.90;;;;;;4164473;28;20311;-54
2021/12/27 07:24:36;;;;;;;131.43;27.27;;;7.90;99.90;;;;;;4163695;28;20132;-52
2021/12/27 07:26:38;;;;;;;76.38;22.35;;;7.90;99.90;;;;;;4163577;28;20768;-52
2021/12/27 07:28:40;;;;;;;33.53;21.48;;;7.90;99.90;;;;;;4164847;28;20041;-53
2021/12/27 07:30:42;;;;;;;381.38;39.47;;;7.90;99.90;;;;;;4164699;28;20091;-53
2021/12/27 07:32:44;;;;;;;30.02;16.63;;;7.90;99.90;;;;;;4163742;28;20109;-52
2021/12/27 07:34:48;;;;;;;197.02;25.15;;;7.90;99.90;;;;;;4163711;28;20033;-53
2021/12/27 07:36:51;;;;;;;286.33;30.25;;;7.80;99.90;;;;;;4162929;28;20038;-53
2021/12/27 07:38:54;;;;;;;24.67;16.60;;;7.90;99.90;;;;;;4159497;28;20077;-54
2021/12/27 07:40:55;;;;;;;12.30;11.25;;;7.80;99.90;;;;;;4156484;28;20052;-54
2021/12/27 07:42:58;;;;;;;10.65;10.00;;;7.90;99.90;;;;;;4164104;28;20734;-53
2021/12/27 07:45:02;;;;;;;8.88;8.38;;;7.90;99.90;;;;;;4161782;28;20045;-53
2021/12/27 07:47:04;;;;;;;11.35;10.55;;;7.90;99.90;;;;;;4159322;28;20077;-53
2021/12/27 07:49:10;;;;;;;10.27;9.38;;;8.00;99.90;;;;;;4156578;28;20057;-53
2021/12/27 07:51:12;;;;;;;9.40;8.70;;;7.90;99.90;;;;;;4168405;28;20043;-54
2021/12/27 07:53:14;;;;;;;13.93;12.75;;;7.90;99.90;;;;;;4162783;28;20033;-53
2021/12/27 07:55:17;;;;;;;15.15;13.70;;;7.90;99.90;;;;;;4163505;28;20033;-53
2021/12/27 07:57:19;;;;;;;11.70;11.00;;;8.00;99.90;;;;;;4161687;28;20545;-54
2021/12/27 07:59:21;;;;;;;11.35;10.52;;;8.00;99.90;;;;;;4164573;28;20049;-53
2021/12/27 08:01:23;;;;;;;11.55;10.65;;;8.00;99.90;;;;;;4161419;28;20045;-54
2021/12/27 08:03:26;;;;;;;9.43;8.38;;;8.00;99.90;;;;;;4164549;28;20041;-53
2021/12/27 08:05:28;;;;;;;8.65;8.35;;;8.00;99.90;;;;;;4160933;28;20041;-53
2021/12/27 08:07:30;;;;;;;9.88;9.18;;;7.90;99.90;;;;;;4164344;28;20040;-54
2021/12/27 08:09:32;;;;;;;10.07;9.57;;;7.90;99.90;;;;;;4162495;28;20044;-53
2021/12/27 08:11:34;;;;;;;10.63;9.82;;;8.00;99.90;;;;;;4163877;28;20041;-53
2021/12/27 08:13:37;;;;;;;12.98;11.43;;;8.00;99.90;;;;;;4160840;28;20037;-54
2021/12/27 08:15:39;;;;;;;11.38;10.70;;;8.00;99.90;;;;;;4163228;28;20125;-54
2021/12/27 08:17:41;;;;;;;10.90;10.20;;;7.90;99.90;;;;;;4161047;28;20531;-53
2021/12/27 08:19:45;;;;;;;13.43;12.45;;;8.00;99.90;;;;;;4171167;28;20101;-54
2021/12/27 08:21:47;;;;;;;11.13;10.45;;;8.00;99.90;;;;;;4153502;28;20065;-53
2021/12/27 08:23:50;;;;;;;9.13;8.63;;;8.10;99.90;;;;;;4162670;28;20041;-54
2021/12/27 08:25:52;;;;;;;9.52;8.93;;;8.10;99.90;;;;;;4160724;28;20124;-54
2021/12/27 08:27:54;;;;;;;10.90;10.13;;;8.10;99.90;;;;;;4164298;28;20069;-53
2021/12/27 08:29:58;;;;;;;12.80;11.90;;;8.10;99.90;;;;;;4159903;28;20036;-54
2021/12/27 08:32:00;;;;;;;9.15;8.63;;;8.20;99.90;;;;;;4163387;28;20771;-54
2021/12/27 08:34:03;;;;;;;8.77;8.27;;;8.20;99.90;;;;;;4159138;28;20060;-54
2021/12/27 08:36:05;;;;;;;8.60;8.10;;;8.20;99.90;;;;;;4164302;28;20072;-54
2021/12/27 08:38:07;;;;;;;7.70;7.50;;;8.20;99.90;;;;;;4161873;28;20085;-54
2021/12/27 08:40:10;;;;;;;6.95;6.75;;;8.20;99.90;;;;;;4164267;28;20041;-53
2021/12/27 08:42:12;;;;;;;8.82;8.20;;;8.20;99.90;;;;;;4161392;28;20073;-54
2021/12/27 08:44:15;;;;;;;7.68;7.40;;;8.20;99.90;;;;;;4162728;28;20048;-52
2021/12/27 08:46:17;;;;;;;7.25;6.93;;;8.30;99.90;;;;;;4159011;28;20041;-53
2021/12/27 08:48:19;;;;;;;6.60;6.22;;;8.30;99.90;;;;;;4164287;28;20065;-54
2021/12/27 08:50:21;;;;;;;6.55;6.35;;;8.40;99.90;;;;;;4160296;28;20068;-52
2021/12/27 08:52:23;;;;;;;7.38;6.97;;;8.40;99.90;;;;;;4164235;28;20098;-53
2021/12/27 08:54:25;;;;;;;7.32;7.03;;;8.40;99.90;;;;;;4161480;28;20480;-53
2021/12/27 08:56:27;;;;;;;8.27;7.90;;;8.40;99.90;;;;;;4162291;28;20136;-53
2021/12/27 08:58:29;;;;;;;7.63;7.22;;;8.40;99.90;;;;;;4161140;28;20037;-51
2021/12/27 09:00:32;;;;;;;7.10;6.72;;;8.40;99.90;;;;;;4163230;28;20069;-52
2021/12/27 09:02:34;;;;;;;8.40;7.68;;;8.50;99.90;;;;;;4160992;28;20124;-53
2021/12/27 09:04:36;;;;;;;8.07;7.75;;;8.50;99.90;;;;;;4153154;28;20064;-53
2021/12/27 09:06:38;;;;;;;7.30;7.00;;;8.50;99.90;;;;;;4161800;28;20148;-54
2021/12/27 09:08:41;;;;;;;7.13;6.82;;;8.50;99.90;;;;;;4158812;28;20048;-53
2021/12/27 09:10:43;;;;;;;;;;;8.50;99.90;;;;;;4158830;28;20071;-53
2021/12/27 09:12:45;;;;;;;6.78;6.68;;;8.50;99.90;;;;;;4163758;28;19925;-53
2021/12/27 09:14:47;;;;;;;7.82;7.55;;;8.50;99.90;;;;;;4160960;28;20038;-54
2021/12/27 09:16:49;;;;;;;7.18;6.85;;;8.40;99.90;;;;;;4162679;28;20044;-53
2021/12/27 09:18:51;;;;;;;10.25;9.60;;;8.40;99.90;;;;;;4161150;28;20044;-53
2021/12/27 09:20:53;;;;;;;9.68;9.23;;;8.50;99.90;;;;;;4162666;28;20052;-54
2021/12/27 09:22:56;;;;;;;10.70;10.20;;;8.50;99.90;;;;;;4159742;28;20072;-53
2021/12/27 09:24:58;;;;;;;10.93;10.20;;;8.60;99.90;;;;;;4163089;28;20055;-52
2021/12/27 09:27:00;;;;;;;11.77;10.85;;;8.60;99.90;;;;;;4160696;28;20586;-52
2021/12/27 09:29:02;;;;;;;11.43;10.73;;;8.70;99.90;;;;;;4164089;28;20041;-53
2021/12/27 09:31:05;;;;;;;11.23;10.75;;;8.60;99.90;;;;;;4161375;28;20115;-53
2021/12/27 09:33:07;;;;;;;11.43;10.55;;;8.70;99.90;;;;;;4162669;28;20175;-54
2021/12/27 09:35:09;;;;;;;11.30;10.30;;;8.70;99.90;;;;;;4160594;28;20544;-53
2021/12/27 09:37:12;;;;;;;9.20;8.60;;;8.80;99.90;;;;;;4161590;28;20046;-53
2021/12/27 09:39:14;;;;;;;9.25;8.68;;;8.80;99.90;;;;;;4161631;28;20125;-54
2021/12/27 09:41:16;;;;;;;8.98;8.23;;;8.80;99.90;;;;;;4161358;28;20048;-54
2021/12/27 09:43:18;;;;;;;7.50;7.15;;;8.80;99.90;;;;;;4160762;28;20047;-53
2021/12/27 09:45:21;;;;;;;8.30;7.47;;;8.70;99.90;;;;;;4146779;28;20513;-53
2021/12/27 09:47:23;;;;;;;;;;;8.70;99.90;;;;;;4158128;28;20045;-53
2021/12/27 09:49:37;;;;;;;7.80;7.45;;;8.70;99.90;;;;;;4162565;28;19999;-53
2021/12/27 09:51:40;;;;;;;7.05;6.82;;;8.80;99.90;;;;;;4159002;28;20041;-54
2021/12/27 09:53:43;;;;;;;7.10;6.70;;;8.80;99.90;;;;;;4162537;28;20041;-53
2021/12/27 09:55:45;;;;;;;;;;;9.00;99.90;;;;;;4160393;28;20037;-54
2021/12/27 09:57:47;;;;;;;7.20;6.82;;;9.00;99.90;;;;;;4161151;28;19921;-54
2021/12/27 09:59:49;;;;;;;6.93;6.65;;;9.00;99.90;;;;;;4160825;28;20459;-53
2021/12/27 10:01:52;;;;;;;7.22;7.03;;;9.00;99.90;;;;;;4161660;28;20060;-54
2021/12/27 10:03:58;;;;;;;7.60;7.30;;;8.90;99.90;;;;;;4161465;28;20096;-54
2021/12/27 10:06:13;;;;;;;8.90;8.40;;;9.00;99.90;;;;;;4160554;28;20045;-54
2021/12/27 10:08:17;;;;;;;8.38;8.07;;;9.00;99.90;;;;;;4161418;28;20448;-51
2021/12/27 10:10:20;;;;;;;9.02;8.63;;;8.90;99.90;;;;;;4162930;28;20084;-52
2021/12/27 10:12:23;;;;;;;8.48;7.97;;;8.90;99.90;;;;;;4164950;28;20041;-52
2021/12/27 10:14:25;;;;;;;7.85;7.53;;;8.90;99.90;;;;;;4164199;28;20041;-53
2021/12/27 10:16:28;;;;;;;7.13;6.85;;;8.90;99.90;;;;;;4163022;28;20049;-54
2021/12/27 10:18:30;;;;;;;8.48;8.05;;;9.00;99.90;;;;;;4163156;28;20067;-53
2021/12/27 10:20:32;;;;;;;8.88;8.48;;;9.10;99.90;;;;;;4166327;28;20042;-52
2021/12/27 10:22:38;;;;;;;7.57;7.35;;;9.10;99.90;;;;;;4162252;28;20111;-52
2021/12/27 10:24:40;;;;;;;6.60;6.28;;;8.90;99.90;;;;;;4164248;28;20509;-54
2021/12/27 10:26:49;;;;;;;6.40;6.10;;;8.90;99.90;;;;;;4162697;28;20564;-52
2021/12/27 10:29:06;;;;;;;7.30;7.00;;;8.90;99.90;;;;;;4166329;28;20056;-53
2021/12/27 10:31:08;;;;;;;8.18;7.82;;;8.90;99.90;;;;;;4162213;28;20025;-52
2021/12/27 10:33:13;;;;;;;8.93;8.15;;;9.00;99.90;;;;;;4176680;28;20037;-52
2021/12/27 10:35:15;;;;;;;7.43;6.75;;;8.90;99.90;;;;;;4165971;28;20061;-54
2021/12/27 10:37:27;;;;;;;10.55;10.05;;;9.00;99.90;;;;;;4166541;28;20045;-50
2021/12/27 10:39:50;;;;;;;6.82;6.47;;;9.00;99.90;;;;;;4163314;28;20437;-52
2021/12/27 10:41:52;;;;;;;5.93;5.82;;;9.00;99.90;;;;;;4162653;28;20049;-53